Decoded Metar for OIZH (ZAHEDAN in IRAN) (IATA:ZAH) | Meteo·Mobile Aviation Weather
aviador You're here:

OIZH Decoded Metar

ZAHEDAN in IRAN
Report Time2018-11-19 03:30:00
UTC Time2018-11-19 03:53:15
Flight Rules vfr VFR
Wind160° at 04 kt
W.Decomp.*RWY 17: 3.9 kt HW 0.8 kt LCW
W.Rank160° ranks 7
Current wind is below 160° avg. (5.6)
Visibility9999 m
Phenomena:N/A
Clouds:N/A
Expected CloudBase > 3,600 ft AGL from Temp-Dew spread
CeilingNone
Temp08°C (ISA +2)
Dew Point-1°C (53% RH)
AAT4.4°C
QNH1023 hPa
Density Alt4,475 ft
Elevation4,495 ft
Report Wrong Elevation
Raw Report
METAR OIZH 190330Z 16004KT CAVOK 08/M01 Q1023 A3023=

Extra information for OIZH:More info

Metar Taf Metar & Taf Last 4 Metars F.Rules Stats Wind Profile Meteogram Temp Stats Airport Information Weather charts Add Link Nearby VenuesMetar ALERT Operation Metar Decoded Social comments